ANA111 KORD-RJTT
Flight info
| Callsign | ANA111 |
|---|---|
| Flight time | N/A |
| Altitude | 37000 |
| Route | PMPKN DCT NEATO DCT DLLAN DCT RONIC DCT BAE J89 DLH DCT 54N100W 58N110W 59N120W 60N130W DCT YXY DCT JAGIT NCA13 YESKA DCT TED DCT NODLE R220 NANAC Y810 AKRIT Y807 POLIX |
| Aircraft | B77W/H-SDE1E2E3FGHIJ2J3J4J5M1RWXY/LB1D1 |
Departure
| Time | 2026-05-05 21:34 |
|---|---|
| Airport | Chicago O'Hare International Airport (KORD) |
Arrival
| Time | N/A |
|---|---|
| Airport | Tokyo Haneda International Airport (RJTT) |
| Time | Latitude | Longitude | Altitude | Speed | Heading |
|---|---|---|---|---|---|
| 2026-05-05 20:55 | 41.97337 | -87.88787 | 675 ft | 0 kts | 360° |
| 2026-05-05 20:56 | 41.97353 | -87.88811 | 675 ft | 0 kts | 0° |
| 2026-05-05 20:58 | 41.97360 | -87.88726 | 675 ft | 0 kts | 357° |
| 2026-05-05 20:58 | 41.97350 | -87.88725 | 684 ft | 0 kts | 357° |
| 2026-05-05 20:59 | 41.97343 | -87.88724 | 683 ft | 0 kts | 357° |
| 2026-05-05 20:59 | 41.97343 | -87.88725 | 683 ft | 0 kts | 358° |
| 2026-05-05 20:59 | 41.97344 | -87.88725 | 683 ft | 0 kts | 358° |
| 2026-05-05 20:59 | 41.97344 | -87.88726 | 683 ft | 0 kts | 360° |
| 2026-05-05 21:21 | 41.97323 | -87.88726 | 673 ft | 4 kts | 7° |
| 2026-05-05 21:21 | 41.97297 | -87.88734 | 672 ft | 4 kts | 24° |
| 2026-05-05 21:21 | 41.97276 | -87.88753 | 675 ft | 4 kts | 58° |
| 2026-05-05 21:21 | 41.97270 | -87.88772 | 675 ft | 0 kts | 91° |
| 2026-05-05 21:27 | 41.97269 | -87.88749 | 675 ft | 4 kts | 92° |
| 2026-05-05 21:27 | 41.97268 | -87.88708 | 675 ft | 4 kts | 90° |
| 2026-05-05 21:27 | 41.97269 | -87.88657 | 675 ft | 8 kts | 89° |
| 2026-05-05 21:28 | 41.97270 | -87.88561 | 675 ft | 11 kts | 90° |
| 2026-05-05 21:28 | 41.97270 | -87.88459 | 675 ft | 11 kts | 90° |
| 2026-05-05 21:28 | 41.97257 | -87.88369 | 673 ft | 9 kts | 134° |
| 2026-05-05 21:28 | 41.97237 | -87.88359 | 675 ft | 0 kts | 172° |
| 2026-05-05 21:29 | 41.97231 | -87.88358 | 675 ft | 3 kts | 171° |
| 2026-05-05 21:29 | 41.97209 | -87.88367 | 675 ft | 6 kts | 227° |
| 2026-05-05 21:29 | 41.97161 | -87.88440 | 675 ft | 11 kts | 202° |
| 2026-05-05 21:29 | 41.97091 | -87.88444 | 674 ft | 9 kts | 176° |
| 2026-05-05 21:30 | 41.97067 | -87.88436 | 674 ft | 3 kts | 156° |
| 2026-05-05 21:30 | 41.97046 | -87.88412 | 673 ft | 4 kts | 136° |
| 2026-05-05 21:30 | 41.97023 | -87.88399 | 672 ft | 0 kts | 174° |
| 2026-05-05 21:31 | 41.97021 | -87.88399 | 672 ft | 2 kts | 175° |
| 2026-05-05 21:31 | 41.96983 | -87.88402 | 671 ft | 7 kts | 186° |
| 2026-05-05 21:31 | 41.96928 | -87.88412 | 669 ft | 8 kts | 201° |
| 2026-05-05 21:32 | 41.96907 | -87.88469 | 669 ft | 0 kts | 270° |
| 2026-05-05 21:33 | 41.96907 | -87.88521 | 669 ft | 22 kts | 270° |
| 2026-05-05 21:33 | 41.96908 | -87.89038 | 670 ft | 87 kts | 270° |
| 2026-05-05 21:33 | 41.96905 | -87.90121 | 675 ft | 143 kts | 270° |
| 2026-05-05 21:34 | 41.96907 | -87.91654 | 686 ft | 183 kts | 271° |
| 2026-05-05 21:34 | 41.96941 | -87.93347 | 1140 ft | 179 kts | 274° |
| 2026-05-05 21:34 | 41.97288 | -87.94973 | 1537 ft | 187 kts | 305° |
| 2026-05-05 21:34 | 41.98367 | -87.96008 | 1953 ft | 198 kts | 343° |
| 2026-05-05 21:35 | 41.99718 | -87.96146 | 2470 ft | 201 kts | 356° |
| 2026-05-05 21:35 | 42.01190 | -87.96163 | 2638 ft | 222 kts | 356° |
| 2026-05-05 21:35 | 42.02802 | -87.96197 | 2872 ft | 243 kts | 356° |
| 2026-05-05 21:35 | 42.04464 | -87.96236 | 3379 ft | 251 kts | 356° |
| 2026-05-05 21:36 | 42.06304 | -87.96278 | 4054 ft | 256 kts | 356° |
| 2026-05-05 21:36 | 42.08098 | -87.96329 | 4755 ft | 258 kts | 356° |
| 2026-05-05 21:36 | 42.09901 | -87.96378 | 5433 ft | 261 kts | 356° |
| 2026-05-05 21:36 | 42.11734 | -87.96423 | 6089 ft | 264 kts | 356° |
| 2026-05-05 21:37 | 42.13582 | -87.96462 | 6714 ft | 267 kts | 356° |
| 2026-05-05 21:37 | 42.15443 | -87.96306 | 7168 ft | 277 kts | 3° |
| 2026-05-05 21:37 | 42.17395 | -87.95915 | 7742 ft | 283 kts | 4° |
| 2026-05-05 21:37 | 42.19333 | -87.95507 | 8277 ft | 288 kts | 3° |
| 2026-05-05 21:38 | 42.21330 | -87.95108 | 8830 ft | 293 kts | 2° |
| 2026-05-05 21:38 | 42.23370 | -87.94727 | 9370 ft | 298 kts | 1° |
| 2026-05-05 21:38 | 42.25438 | -87.94357 | 9914 ft | 302 kts | 0° |
| 2026-05-05 21:38 | 42.27552 | -87.93989 | 10335 ft | 312 kts | 0° |
| 2026-05-05 21:39 | 42.29780 | -87.93617 | 10488 ft | 332 kts | 359° |
| 2026-05-05 21:39 | 42.32141 | -87.93483 | 10657 ft | 348 kts | 352° |
| 2026-05-05 21:39 | 42.34605 | -87.93703 | 10828 ft | 366 kts | 348° |
| 2026-05-05 21:39 | 42.37183 | -87.94058 | 11268 ft | 377 kts | 348° |
| 2026-05-05 21:40 | 42.39808 | -87.94418 | 11931 ft | 384 kts | 348° |
| 2026-05-05 21:40 | 42.40610 | -87.94521 | 12201 ft | 385 kts | 348° |
| 2026-05-05 21:40 | 42.41665 | -87.94652 | 12561 ft | 385 kts | 348° |
| 2026-05-05 21:40 | 42.44328 | -87.94970 | 13455 ft | 388 kts | 347° |
| 2026-05-05 21:41 | 42.47032 | -87.95286 | 14211 ft | 392 kts | 347° |
| 2026-05-05 21:41 | 42.49765 | -87.95620 | 14932 ft | 396 kts | 347° |
| 2026-05-05 21:41 | 42.52517 | -87.95974 | 15681 ft | 399 kts | 346° |
| 2026-05-05 21:41 | 42.55294 | -87.96332 | 16424 ft | 403 kts | 346° |